Time;durP1;ratioP1;P1;durP2;ratioP2;P2;SDS_P1;SDS_P2;PMS_P1;PMS_P2;Temp;Humidity;BMP_temperature;BMP_pressure;BME280_temperature;BME280_humidity;BME280_pressure;Samples;Min_cycle;Max_cycle;Signal;HPM_P1;HPM_P2
2021/01/06 00:01:29;;;;;;;1999.90;999.90;;;3.80;99.90;;;;;;5020958;28;20166;-85
2021/01/06 00:03:55;;;;;;;1999.90;999.90;;;3.80;99.90;;;;;;5021789;28;20169;-85
2021/01/06 00:06:29;;;;;;;1999.90;999.90;;;3.80;99.90;;;;;;5021180;28;20236;-85
2021/01/06 00:08:55;;;;;;;1999.90;999.90;;;3.80;99.90;;;;;;5004253;28;20184;-85
2021/01/06 00:11:29;;;;;;;1999.90;999.90;;;3.80;99.90;;;;;;5021260;28;20170;-85
2021/01/06 00:13:54;;;;;;;1999.90;999.90;;;3.90;99.90;;;;;;5021921;28;20208;-85
2021/01/06 00:16:23;;;;;;;1999.90;999.90;;;3.80;99.90;;;;;;5003322;28;20166;-85
2021/01/06 00:18:50;;;;;;;1999.90;999.90;;;3.80;99.90;;;;;;5021022;28;20170;-85
2021/01/06 00:21:16;;;;;;;1999.90;999.90;;;3.80;99.90;;;;;;5020358;28;20169;-84
2021/01/06 00:23:41;;;;;;;1999.90;999.90;;;3.80;99.90;;;;;;5019779;28;20252;-84
2021/01/06 00:26:07;;;;;;;1999.90;999.90;;;3.80;99.90;;;;;;5020148;28;20288;-84
2021/01/06 00:28:33;;;;;;;1999.90;999.90;;;3.80;99.90;;;;;;5020415;28;20168;-83
2021/01/06 00:30:59;;;;;;;1999.90;999.90;;;3.80;99.90;;;;;;5019927;28;20498;-83
2021/01/06 00:33:34;;;;;;;1999.90;999.90;;;3.80;99.90;;;;;;5019927;28;20162;-83
2021/01/06 00:36:06;;;;;;;1999.90;999.90;;;3.80;99.90;;;;;;5020084;28;20164;-83
2021/01/06 00:38:36;;;;;;;1999.90;999.90;;;3.80;99.90;;;;;;5002317;28;20644;-83
2021/01/06 00:41:01;;;;;;;1999.90;999.90;;;3.90;99.90;;;;;;5020051;28;20528;-83
2021/01/06 00:43:27;;;;;;;1999.90;999.90;;;3.80;99.90;;;;;;5020129;28;20326;-83
2021/01/06 00:45:53;;;;;;;1999.90;999.90;;;3.80;99.90;;;;;;5020345;28;20273;-83
2021/01/06 00:48:19;;;;;;;1999.90;999.90;;;3.80;99.90;;;;;;5001997;28;20252;-83
2021/01/06 00:50:44;;;;;;;1999.90;999.90;;;3.80;99.90;;;;;;5020166;28;20171;-83
2021/01/06 00:53:16;;;;;;;1999.90;999.90;;;3.80;99.90;;;;;;5020433;28;20405;-82
2021/01/06 00:55:44;;;;;;;1999.90;999.90;;;3.80;99.90;;;;;;5019741;28;20177;-83
2021/01/06 00:58:09;;;;;;;1999.90;999.90;;;3.80;99.90;;;;;;5019140;28;20166;-83
2021/01/06 01:00:35;;;;;;;1999.90;999.90;;;3.80;99.90;;;;;;5001496;28;20162;-83
2021/01/06 01:03:01;;;;;;;1999.90;999.90;;;3.80;99.90;;;;;;5019560;28;20167;-82
2021/01/06 01:05:30;;;;;;;1999.90;999.90;;;3.80;99.90;;;;;;5019233;28;20154;-82
2021/01/06 01:07:56;;;;;;;1999.90;999.90;;;3.80;99.90;;;;;;5018607;28;20289;-82
2021/01/06 01:10:27;;;;;;;1999.90;999.90;;;3.70;99.90;;;;;;5019306;28;20228;-82
2021/01/06 01:12:53;;;;;;;1999.90;999.90;;;3.70;99.90;;;;;;5018824;28;20529;-82
2021/01/06 01:15:21;;;;;;;1999.90;999.90;;;3.80;99.90;;;;;;5000684;28;20170;-82
2021/01/06 01:17:47;;;;;;;1999.90;999.90;;;3.80;99.90;;;;;;5019619;28;20174;-82
2021/01/06 01:20:14;;;;;;;1999.90;999.90;;;3.80;99.90;;;;;;5019638;28;20177;-82
2021/01/06 01:22:40;;;;;;;1999.90;999.90;;;3.80;99.90;;;;;;5019208;28;20439;-82
2021/01/06 01:25:07;;;;;;;1999.90;999.90;;;3.80;99.90;;;;;;5019963;28;20185;-82
2021/01/06 01:27:32;;;;;;;1999.90;999.90;;;3.80;99.90;;;;;;5018968;28;20189;-82
2021/01/06 01:29:58;;;;;;;1999.90;999.90;;;3.90;99.90;;;;;;5019006;28;20232;-82
2021/01/06 01:32:23;;;;;;;1999.90;999.90;;;3.90;99.90;;;;;;5018828;28;20176;-82
2021/01/06 01:34:49;;;;;;;1999.90;999.90;;;3.80;99.90;;;;;;5002011;28;20178;-82
2021/01/06 01:37:14;;;;;;;1999.90;999.90;;;3.80;99.90;;;;;;5000932;28;20703;-82
2021/01/06 01:39:40;;;;;;;1999.90;999.90;;;3.80;99.90;;;;;;5018857;28;20269;-82
2021/01/06 01:42:07;;;;;;;1999.90;999.90;;;3.80;99.90;;;;;;5001414;28;20252;-82
2021/01/06 01:44:32;;;;;;;1999.90;999.90;;;3.80;99.90;;;;;;5000946;28;20177;-82
2021/01/06 01:47:27;;;;;;;1999.90;999.90;;;3.80;99.90;;;;;;5019102;28;20193;-82
2021/01/06 01:49:53;;;;;;;1999.90;999.90;;;3.80;99.90;;;;;;5014417;28;20596;-82
2021/01/06 01:52:33;;;;;;;1999.90;999.90;;;3.80;99.90;;;;;;5001095;28;20169;-82
2021/01/06 01:55:02;;;;;;;1999.90;999.90;;;3.80;99.90;;;;;;5000135;28;20164;-82
2021/01/06 01:57:37;;;;;;;1999.90;999.90;;;3.80;99.90;;;;;;5018309;28;20166;-82
2021/01/06 02:00:13;;;;;;;1999.90;999.90;;;3.80;99.90;;;;;;5018498;28;20516;-82
2021/01/06 02:03:02;;;;;;;1999.90;999.90;;;3.80;99.90;;;;;;5000641;28;20664;-81
2021/01/06 02:05:37;;;;;;;1999.90;999.90;;;3.80;99.90;;;;;;5018748;28;20158;-81
2021/01/06 02:08:21;;;;;;;1999.90;999.90;;;3.80;99.90;;;;;;5018428;28;20180;-82
2021/01/06 02:10:54;;;;;;;1999.90;999.90;;;3.80;99.90;;;;;;5018644;28;20154;-81
2021/01/06 02:13:42;;;;;;;1999.90;999.90;;;3.80;99.90;;;;;;5018245;28;20505;-81
2021/01/06 02:16:31;;;;;;;1999.90;999.90;;;3.80;99.90;;;;;;5000808;28;20200;-81
2021/01/06 02:18:57;;;;;;;1999.90;999.90;;;3.80;99.90;;;;;;5000000;28;20165;-81
2021/01/06 02:21:25;;;;;;;1999.90;999.90;;;3.80;99.90;;;;;;5017831;28;20166;-80
2021/01/06 02:23:56;;;;;;;1999.90;999.90;;;3.80;99.90;;;;;;5017878;28;20411;-79
2021/01/06 02:26:24;;;;;;;1999.90;999.90;;;3.80;99.90;;;;;;5018158;28;20217;-79
2021/01/06 02:28:49;;;;;;;1999.90;999.90;;;3.80;99.90;;;;;;5017661;28;20173;-81
2021/01/06 02:31:17;;;;;;;1999.90;999.90;;;3.80;99.90;;;;;;5000121;28;20170;-82
2021/01/06 02:33:44;;;;;;;1999.90;999.90;;;3.80;99.90;;;;;;5017538;28;20468;-82
2021/01/06 02:36:10;;;;;;;1999.90;999.90;;;3.80;99.90;;;;;;5018126;28;20165;-82
2021/01/06 02:38:36;;;;;;;1999.90;999.90;;;3.90;99.90;;;;;;4999728;28;20201;-80
2021/01/06 02:41:02;;;;;;;1999.90;999.90;;;3.90;99.90;;;;;;4999595;28;20405;-80
2021/01/06 02:43:28;;;;;;;1999.90;999.90;;;3.90;99.90;;;;;;5017326;28;20170;-79
2021/01/06 02:45:55;;;;;;;1999.90;999.90;;;3.80;99.90;;;;;;5016619;28;20704;-79
2021/01/06 02:48:22;;;;;;;1999.90;999.90;;;3.80;99.90;;;;;;5017279;28;20166;-80
2021/01/06 02:50:52;;;;;;;1999.90;999.90;;;3.80;99.90;;;;;;5016922;28;20205;-79
2021/01/06 02:53:36;;;;;;;1999.90;999.90;;;3.80;99.90;;;;;;5017342;28;20150;-81
2021/01/06 02:56:03;;;;;;;1999.90;999.90;;;3.80;99.90;;;;;;4999769;28;20194;-82
2021/01/06 02:58:30;;;;;;;1999.90;999.90;;;3.80;99.90;;;;;;5000352;28;20170;-82
2021/01/06 03:00:56;;;;;;;1999.90;999.90;;;3.80;99.90;;;;;;5018340;28;20165;-82
2021/01/06 03:03:29;;;;;;;1999.90;999.90;;;3.70;99.90;;;;;;5017764;28;20303;-82
2021/01/06 03:06:07;;;;;;;1999.90;999.90;;;3.70;99.90;;;;;;4999802;28;20161;-81
2021/01/06 03:08:34;;;;;;;1999.90;999.90;;;3.70;99.90;;;;;;5016791;28;20161;-82
2021/01/06 03:11:01;;;;;;;1999.90;999.90;;;3.70;99.90;;;;;;5017542;28;20166;-82
2021/01/06 03:13:30;;;;;;;1999.90;999.90;;;3.70;99.90;;;;;;5016910;28;20162;-82
2021/01/06 03:15:56;;;;;;;1999.90;999.90;;;3.80;99.90;;;;;;5017774;28;20169;-81
2021/01/06 03:18:22;;;;;;;1999.90;999.90;;;3.80;99.90;;;;;;5017956;28;20190;-81
2021/01/06 03:20:50;;;;;;;1999.90;999.90;;;3.80;99.90;;;;;;5017700;28;20158;-81
2021/01/06 03:23:29;;;;;;;1999.90;999.90;;;3.80;99.90;;;;;;4999192;28;20518;-81
2021/01/06 03:25:57;;;;;;;1999.90;999.90;;;3.80;99.90;;;;;;5017679;28;20142;-82
2021/01/06 03:28:24;;;;;;;1999.90;999.90;;;3.80;99.90;;;;;;5017221;28;20178;-82
2021/01/06 03:30:50;;;;;;;1999.90;999.90;;;3.80;99.90;;;;;;5017027;28;20162;-81
2021/01/06 03:33:28;;;;;;;1999.90;999.90;;;3.80;99.90;;;;;;5016959;28;20170;-82
2021/01/06 03:36:12;;;;;;;1999.90;999.90;;;3.80;99.90;;;;;;5017456;28;20150;-82
2021/01/06 03:38:43;;;;;;;1999.90;999.90;;;3.80;99.90;;;;;;5002758;28;20186;-82
2021/01/06 03:41:09;;;;;;;1999.90;999.90;;;3.80;99.90;;;;;;5003501;28;20245;-82
2021/01/06 03:43:41;;;;;;;1999.90;999.90;;;3.80;99.90;;;;;;5003073;28;20192;-82
2021/01/06 03:46:33;;;;;;;1999.90;999.90;;;3.90;99.90;;;;;;5002854;28;20194;-80
2021/01/06 03:49:15;;;;;;;1999.90;999.90;;;3.80;99.90;;;;;;4994498;28;20185;-82
2021/01/06 03:52:04;;;;;;;1999.90;999.90;;;3.80;99.90;;;;;;5020577;28;20154;-82
2021/01/06 03:54:49;;;;;;;1999.90;999.90;;;3.80;99.90;;;;;;5020105;28;20189;-82
2021/01/06 03:57:15;;;;;;;1999.90;999.90;;;3.80;99.90;;;;;;5020304;28;20165;-82
2021/01/06 03:59:44;;;;;;;1999.90;999.90;;;3.80;99.90;;;;;;5020655;28;20162;-82
2021/01/06 04:02:14;;;;;;;1999.90;999.90;;;3.80;99.90;;;;;;5002993;28;20544;-81
2021/01/06 04:04:48;;;;;;;1999.90;999.90;;;3.80;99.90;;;;;;5020334;28;20146;-82
2021/01/06 04:07:34;;;;;;;1999.90;999.90;;;3.90;99.90;;;;;;5002501;28;20193;-82
2021/01/06 04:10:08;;;;;;;1999.90;999.90;;;3.90;99.90;;;;;;5002535;28;20166;-82
2021/01/06 04:12:34;;;;;;;1999.90;999.90;;;3.90;99.90;;;;;;5020313;28;20157;-82
2021/01/06 04:15:00;;;;;;;1999.90;999.90;;;3.90;99.90;;;;;;5002379;28;20170;-82
2021/01/06 04:17:33;;;;;;;1999.90;999.90;;;3.90;99.90;;;;;;5002116;28;20641;-82
2021/01/06 04:20:19;;;;;;;1999.90;999.90;;;3.90;99.90;;;;;;5019935;28;20466;-81
2021/01/06 04:22:53;;;;;;;1999.90;999.90;;;3.90;99.90;;;;;;5020134;28;20162;-81
2021/01/06 04:25:24;;;;;;;1999.90;999.90;;;3.90;99.90;;;;;;5019734;28;20629;-82
2021/01/06 04:27:52;;;;;;;1999.90;999.90;;;3.90;99.90;;;;;;5019802;28;20190;-82
2021/01/06 04:30:34;;;;;;;1999.90;999.90;;;3.90;99.90;;;;;;5020001;28;20629;-82
2021/01/06 04:33:02;;;;;;;1999.90;999.90;;;3.90;99.90;;;;;;5019797;28;20173;-82
2021/01/06 04:35:29;;;;;;;1999.90;999.90;;;3.90;99.90;;;;;;5019907;28;20639;-82
2021/01/06 04:37:57;;;;;;;1999.90;999.90;;;3.90;99.90;;;;;;5019490;28;20680;-81
2021/01/06 04:40:26;;;;;;;1999.90;999.90;;;4.00;99.90;;;;;;5001954;28;20193;-82
2021/01/06 04:42:56;;;;;;;1999.90;999.90;;;4.00;99.90;;;;;;5019802;28;20173;-82
2021/01/06 04:45:27;;;;;;;1999.90;999.90;;;4.00;99.90;;;;;;5019789;28;20166;-82
2021/01/06 04:48:14;;;;;;;1999.90;999.90;;;3.90;99.90;;;;;;5019845;28;20186;-82
2021/01/06 04:51:19;;;;;;;1999.90;999.90;;;3.90;99.90;;;;;;5001424;28;20170;-82
2021/01/06 04:53:49;;;;;;;1999.90;999.90;;;3.90;99.90;;;;;;5019457;28;20234;-82
2021/01/06 04:56:33;;;;;;;1999.90;999.90;;;3.90;99.90;;;;;;5019726;28;20150;-82
2021/01/06 04:59:23;;;;;;;1999.90;999.90;;;3.90;99.90;;;;;;5001942;28;20229;-82
2021/01/06 05:01:52;;;;;;;1999.90;999.90;;;3.90;99.90;;;;;;5001943;28;20181;-82
2021/01/06 05:04:57;;;;;;;1999.90;999.90;;;3.90;99.90;;;;;;5001451;28;20174;-82
2021/01/06 05:07:50;;;;;;;1999.90;999.90;;;3.90;99.90;;;;;;5019334;28;20189;-82
2021/01/06 05:10:51;;;;;;;1999.90;999.90;;;3.90;99.90;;;;;;5018973;28;20173;-82
2021/01/06 05:13:24;;;;;;;1999.90;999.90;;;3.90;99.90;;;;;;5001015;28;20154;-82
2021/01/06 05:15:55;;;;;;;1999.90;999.90;;;3.90;99.90;;;;;;5018439;28;20162;-82
2021/01/06 05:18:21;;;;;;;1999.90;999.90;;;4.00;99.90;;;;;;5001156;28;20168;-82
2021/01/06 05:20:47;;;;;;;1999.90;999.90;;;4.00;99.90;;;;;;5018745;28;20166;-82
2021/01/06 05:23:22;;;;;;;1999.90;999.90;;;4.00;99.90;;;;;;5018324;28;20166;-82
2021/01/06 05:25:48;;;;;;;1999.90;999.90;;;4.00;99.90;;;;;;5001187;28;20424;-82
2021/01/06 05:28:18;;;;;;;1999.90;999.90;;;4.00;99.90;;;;;;5019280;28;20173;-83
2021/01/06 05:30:45;;;;;;;1999.90;999.90;;;4.00;99.90;;;;;;5018498;28;20256;-83
2021/01/06 05:33:27;;;;;;;1999.90;999.90;;;4.00;99.90;;;;;;5017946;28;20502;-83
2021/01/06 05:35:52;;;;;;;1999.90;999.90;;;4.00;99.90;;;;;;5018309;28;20486;-83
2021/01/06 05:38:20;;;;;;;1999.90;999.90;;;3.90;99.90;;;;;;5077336;23;20225;-83
2021/01/06 05:40:46;;;;;;;1999.90;999.90;;;3.90;99.90;;;;;;5019078;28;20229;-83
2021/01/06 05:43:17;;;;;;;1999.90;999.90;;;3.90;99.90;;;;;;5019642;28;20206;-83
2021/01/06 05:45:53;;;;;;;1999.90;999.90;;;3.80;99.90;;;;;;5019266;28;20220;-82
2021/01/06 05:48:38;;;;;;;1999.90;999.90;;;3.70;99.90;;;;;;5018818;28;20158;-83
2021/01/06 05:51:06;;;;;;;1999.90;999.90;;;3.50;99.90;;;;;;5019681;28;20164;-82
2021/01/06 05:53:43;;;;;;;1999.90;999.90;;;3.50;99.90;;;;;;5019668;28;20243;-83
2021/01/06 05:56:30;;;;;;;1999.90;999.90;;;3.50;99.90;;;;;;5001111;28;20162;-82
2021/01/06 05:59:02;;;;;;;1999.90;999.90;;;3.50;99.90;;;;;;5018295;28;20248;-82
2021/01/06 06:01:46;;;;;;;1999.90;999.90;;;3.50;99.90;;;;;;5017797;28;20620;-82
2021/01/06 06:04:14;;;;;;;1999.90;999.90;;;3.50;99.90;;;;;;5000838;28;20173;-82
2021/01/06 06:06:53;;;;;;;1999.90;999.90;;;3.50;99.90;;;;;;4999765;28;20293;-82
2021/01/06 06:09:48;;;;;;;1999.90;999.90;;;3.50;99.90;;;;;;4998956;28;20169;-82
2021/01/06 06:12:47;;;;;;;1999.90;999.90;;;3.50;99.90;;;;;;5017692;28;20213;-81
2021/01/06 06:15:41;;;;;;;1999.90;999.90;;;3.50;99.90;;;;;;5016803;28;20233;-82
2021/01/06 06:18:14;;;;;;;1999.90;999.90;;;3.50;99.90;;;;;;5017034;28;20614;-82
2021/01/06 06:21:20;;;;;;;1999.90;999.90;;;3.50;99.90;;;;;;4999409;28;20261;-81
2021/01/06 06:24:22;;;;;;;1999.90;999.90;;;3.50;99.90;;;;;;4998085;28;20189;-81
2021/01/06 06:27:05;;;;;;;1999.90;999.90;;;3.50;99.90;;;;;;5016643;28;20536;-82
2021/01/06 06:29:42;;;;;;;1999.90;999.90;;;3.50;99.90;;;;;;5016320;28;20154;-82
2021/01/06 06:32:08;;;;;;;1999.90;999.90;;;3.50;99.90;;;;;;5016222;28;20165;-82
2021/01/06 06:34:40;;;;;;;1999.90;999.90;;;3.40;99.90;;;;;;5016436;28;20162;-82
2021/01/06 06:37:08;;;;;;;1999.90;999.90;;;3.40;99.90;;;;;;5015962;28;20436;-81
2021/01/06 06:39:44;;;;;;;1999.90;999.90;;;3.40;99.90;;;;;;5015860;28;20234;-82
2021/01/06 06:42:27;;;;;;;1999.90;999.90;;;3.40;99.90;;;;;;5016044;28;20161;-82
2021/01/06 06:45:11;;;;;;;1999.90;999.90;;;3.40;99.90;;;;;;5016211;28;20284;-82
2021/01/06 06:47:49;;;;;;;1999.90;999.90;;;3.50;99.90;;;;;;5016200;28;20633;-82
2021/01/06 06:50:38;;;;;;;1999.90;999.90;;;3.40;99.90;;;;;;4998458;28;20173;-82
2021/01/06 06:53:16;;;;;;;1999.90;999.90;;;3.50;99.90;;;;;;5016139;28;20201;-82
2021/01/06 06:55:56;;;;;;;1999.90;999.90;;;3.50;99.90;;;;;;5016072;28;20162;-82
2021/01/06 06:58:42;;;;;;;1999.90;999.90;;;3.50;99.90;;;;;;5015839;28;20625;-82
2021/01/06 07:01:12;;;;;;;1999.90;999.90;;;3.60;99.90;;;;;;5015706;28;20660;-82
2021/01/06 07:03:43;;;;;;;1999.90;999.90;;;3.60;99.90;;;;;;4998111;28;20165;-82
2021/01/06 07:06:11;;;;;;;1999.90;999.90;;;3.50;99.90;;;;;;5015610;28;20182;-82
2021/01/06 07:08:49;;;;;;;1999.90;999.90;;;3.50;99.90;;;;;;5016004;28;20625;-82
2021/01/06 07:11:41;;;;;;;1999.90;999.90;;;3.50;99.90;;;;;;4998986;28;20169;-82
2021/01/06 07:14:19;;;;;;;1999.90;999.90;;;3.50;99.90;;;;;;5002278;28;20168;-82
2021/01/06 07:17:12;;;;;;;1999.90;999.90;;;3.40;99.90;;;;;;5019323;28;20648;-82
2021/01/06 07:19:55;;;;;;;1999.90;999.90;;;3.40;99.90;;;;;;4997295;28;20186;-81
2021/01/06 07:22:39;;;;;;;1999.90;999.90;;;3.40;99.90;;;;;;5019079;28;20159;-81
2021/01/06 07:25:21;;;;;;;1999.90;999.90;;;3.40;99.90;;;;;;5019287;28;20637;-82
2021/01/06 07:28:05;;;;;;;1999.90;999.90;;;3.40;99.90;;;;;;5019081;28;20196;-81
2021/01/06 07:30:37;;;;;;;1999.90;999.90;;;3.40;99.90;;;;;;5018434;28;20517;-82
2021/01/06 07:33:42;;;;;;;1999.90;999.90;;;3.40;99.90;;;;;;5017912;28;20233;-80
2021/01/06 07:36:22;;;;;;;1999.90;999.90;;;3.40;99.90;;;;;;5000913;28;20166;-83
2021/01/06 07:38:50;;;;;;;1999.90;999.90;;;3.40;99.90;;;;;;5001512;28;20204;-81
2021/01/06 07:41:21;;;;;;;1999.90;999.90;;;3.40;99.90;;;;;;5000419;28;20170;-82
2021/01/06 07:44:17;;;;;;;1999.90;999.90;;;3.40;99.90;;;;;;5018011;28;20241;-82
2021/01/06 07:47:01;;;;;;;1999.90;999.90;;;3.40;99.90;;;;;;5016898;28;20212;-82
2021/01/06 07:50:02;;;;;;;1999.90;999.90;;;3.50;99.90;;;;;;5019629;28;20241;-83
2021/01/06 07:52:50;;;;;;;1999.90;999.90;;;3.50;99.90;;;;;;5017529;28;20157;-81
2021/01/06 07:55:42;;;;;;;1999.90;999.90;;;3.60;99.90;;;;;;5019091;28;20161;-82
2021/01/06 07:58:16;;;;;;;1999.90;999.90;;;3.60;99.90;;;;;;5018322;28;20200;-82
2021/01/06 08:00:57;;;;;;;1999.90;999.90;;;3.60;99.90;;;;;;5001571;28;20176;-82
2021/01/06 08:03:44;;;;;;;1999.90;999.90;;;3.60;99.90;;;;;;5000282;28;20162;-82
2021/01/06 08:06:10;;;;;;;1999.90;999.90;;;3.60;99.90;;;;;;5017889;28;20193;-81
2021/01/06 08:08:51;;;;;;;1999.90;999.90;;;3.70;99.90;;;;;;5017493;28;20166;-82
2021/01/06 08:11:29;;;;;;;1999.90;999.90;;;3.70;99.90;;;;;;5015948;28;20173;-81
2021/01/06 08:14:17;;;;;;;1999.90;999.90;;;3.70;99.90;;;;;;5000385;28;20556;-82
2021/01/06 08:16:58;;;;;;;1999.90;999.90;;;3.80;99.90;;;;;;4999796;28;20173;-82
2021/01/06 08:19:40;;;;;;;1999.90;999.90;;;3.80;99.90;;;;;;5016779;28;20607;-81
2021/01/06 08:22:22;;;;;;;1999.90;999.90;;;3.80;99.90;;;;;;4999359;28;20178;-81
2021/01/06 08:25:07;;;;;;;1999.90;999.90;;;3.90;99.90;;;;;;5017050;28;20640;-82
2021/01/06 08:27:36;;;;;;;1999.90;999.90;;;3.90;99.90;;;;;;4999694;28;20190;-81
2021/01/06 08:30:20;;;;;;;1999.90;999.90;;;3.90;99.90;;;;;;5000716;28;20192;-81
2021/01/06 08:33:00;;;;;;;1999.90;999.90;;;3.90;99.90;;;;;;5017607;28;20633;-83
2021/01/06 08:35:33;;;;;;;1999.90;999.90;;;3.90;99.90;;;;;;5016916;28;20158;-83
2021/01/06 08:37:59;;;;;;;1999.90;999.90;;;4.00;99.90;;;;;;5017171;28;20212;-81
2021/01/06 08:40:39;;;;;;;1999.90;999.90;;;4.00;99.90;;;;;;5017323;28;20242;-83
2021/01/06 08:43:13;;;;;;;1999.90;999.90;;;4.00;99.90;;;;;;4999862;28;20212;-82
2021/01/06 08:45:56;;;;;;;1999.90;999.90;;;4.00;99.90;;;;;;5016546;28;20169;-81
2021/01/06 08:48:54;;;;;;;1999.90;999.90;;;4.00;99.90;;;;;;5016577;28;20629;-81
2021/01/06 08:51:31;;;;;;;1999.90;999.90;;;4.00;99.90;;;;;;4990163;28;20201;-83
2021/01/06 08:53:58;;;;;;;1999.90;999.90;;;4.00;99.90;;;;;;5016539;28;20529;-82
2021/01/06 08:56:27;;;;;;;1999.90;999.90;;;4.00;99.90;;;;;;4998282;28;20257;-82
2021/01/06 08:59:00;;;;;;;1999.90;999.90;;;4.10;99.90;;;;;;4998304;28;20261;-81
2021/01/06 09:01:48;;;;;;;1999.90;999.90;;;4.10;99.90;;;;;;5017505;28;20513;-83
2021/01/06 09:04:22;;;;;;;1999.90;999.90;;;4.10;99.90;;;;;;4999638;28;20317;-83
2021/01/06 09:06:54;;;;;;;1999.90;999.90;;;4.00;99.90;;;;;;5017144;28;20177;-83
2021/01/06 09:09:34;;;;;;;1999.90;999.90;;;4.00;99.90;;;;;;5017038;28;20174;-83
2021/01/06 09:12:00;;;;;;;1999.90;999.90;;;4.10;99.90;;;;;;5016423;28;20524;-81
2021/01/06 09:14:33;;;;;;;1999.90;999.90;;;4.10;99.90;;;;;;5016566;28;20169;-83
2021/01/06 09:17:26;;;;;;;1999.90;999.90;;;4.20;99.90;;;;;;5016678;28;20154;-83
2021/01/06 09:20:02;;;;;;;1999.90;999.90;;;4.20;99.90;;;;;;4999844;28;20184;-83
2021/01/06 09:22:29;;;;;;;1999.90;999.90;;;4.20;99.90;;;;;;5016958;28;20181;-83
2021/01/06 09:24:55;;;;;;;1999.90;999.90;;;4.20;99.90;;;;;;4999186;28;20194;-83
2021/01/06 09:27:36;;;;;;;1999.90;999.90;;;4.20;99.90;;;;;;5015266;28;20217;-83
2021/01/06 09:30:17;;;;;;;1999.90;999.90;;;4.20;99.90;;;;;;4999208;28;20165;-83
2021/01/06 09:32:46;;;;;;;1999.90;999.90;;;4.30;99.90;;;;;;4999655;28;20273;-83
2021/01/06 09:35:19;;;;;;;1999.90;999.90;;;4.10;99.90;;;;;;4997762;28;20204;-83
2021/01/06 09:38:05;;;;;;;1999.90;999.90;;;4.20;99.90;;;;;;5016672;28;20158;-83
2021/01/06 09:40:33;;;;;;;1999.90;999.90;;;4.20;99.90;;;;;;4998876;28;20256;-83
2021/01/06 09:43:07;;;;;;;1999.90;999.90;;;4.20;99.90;;;;;;5016540;28;20254;-83
2021/01/06 09:45:33;;;;;;;1999.90;999.90;;;4.30;99.90;;;;;;5016926;28;20229;-84
2021/01/06 09:48:03;;;;;;;1999.90;999.90;;;4.30;99.90;;;;;;5016122;28;20189;-83
2021/01/06 09:50:38;;;;;;;1999.90;999.90;;;4.30;99.90;;;;;;5016347;28;20610;-83
2021/01/06 09:53:08;;;;;;;1999.90;999.90;;;4.40;99.90;;;;;;4999204;28;20248;-84
2021/01/06 09:55:35;;;;;;;1999.90;999.90;;;4.40;99.90;;;;;;5014778;28;20172;-84
2021/01/06 09:58:11;;;;;;;1999.90;999.90;;;4.40;99.90;;;;;;4998649;28;20174;-83
2021/01/06 10:00:54;;;;;;;1999.90;999.90;;;4.40;99.90;;;;;;5016167;28;20245;-84
2021/01/06 10:03:35;;;;;;;1999.90;999.90;;;4.50;99.90;;;;;;5015592;28;20641;-83
2021/01/06 10:06:10;;;;;;;1999.90;999.90;;;4.50;99.90;;;;;;5015555;28;20188;-83
2021/01/06 10:08:44;;;;;;;1999.90;999.90;;;4.60;99.90;;;;;;4998809;28;20164;-84
2021/01/06 10:11:55;;;;;;;1999.90;999.90;;;4.60;99.90;;;;;;4997924;28;20161;-84
2021/01/06 10:14:46;;;;;;;1999.90;999.90;;;4.60;99.90;;;;;;4996292;28;20231;-83
2021/01/06 10:17:27;;;;;;;1999.90;999.90;;;4.50;99.90;;;;;;4997164;28;20165;-84
2021/01/06 10:20:26;;;;;;;1999.90;999.90;;;4.50;99.90;;;;;;5014754;28;20150;-83
2021/01/06 10:23:12;;;;;;;1999.90;999.90;;;4.60;99.90;;;;;;4975198;28;20186;-83
2021/01/06 10:25:50;;;;;;;1999.90;999.90;;;4.70;99.90;;;;;;4996732;28;20162;-83
2021/01/06 10:28:52;;;;;;;1999.90;999.90;;;4.70;99.90;;;;;;4996881;28;20657;-83
2021/01/06 10:31:26;;;;;;;1999.90;999.90;;;4.80;99.90;;;;;;4977111;28;20212;-85
2021/01/06 10:34:21;;;;;;;1999.90;999.90;;;4.80;99.90;;;;;;4997019;28;20211;-83
2021/01/06 10:37:02;;;;;;;1999.90;999.90;;;4.90;99.90;;;;;;4997393;28;20166;-84
2021/01/06 10:39:46;;;;;;;1999.90;999.90;;;5.00;99.90;;;;;;4997575;28;20192;-85
2021/01/06 10:42:33;;;;;;;1999.90;999.90;;;4.90;99.90;;;;;;4996268;28;20213;-83
2021/01/06 10:45:16;;;;;;;1999.90;999.90;;;5.00;99.90;;;;;;5014573;28;20162;-83
2021/01/06 10:47:56;;;;;;;1999.90;999.90;;;5.00;99.90;;;;;;4996558;28;20192;-83
2021/01/06 10:50:31;;;;;;;1999.90;999.90;;;4.90;99.90;;;;;;5014573;28;20150;-84
2021/01/06 10:53:16;;;;;;;1999.90;999.90;;;4.70;99.90;;;;;;5014703;28;20647;-84
2021/01/06 10:55:54;;;;;;;1999.90;999.90;;;4.70;99.90;;;;;;4996611;28;20166;-83
2021/01/06 10:58:47;;;;;;;1999.90;999.90;;;4.60;99.90;;;;;;5014564;28;20178;-83
2021/01/06 11:01:13;;;;;;;1999.90;999.90;;;4.50;99.90;;;;;;4990219;28;20181;-85
2021/01/06 11:03:38;;;;;;;1999.90;999.90;;;4.50;99.90;;;;;;4997623;28;20220;-85
2021/01/06 11:06:12;;;;;;;1999.90;999.90;;;4.60;99.90;;;;;;5015508;28;20174;-84
2021/01/06 11:09:12;;;;;;;1999.90;999.90;;;4.60;99.90;;;;;;5015380;28;20648;-85
2021/01/06 11:12:04;;;;;;;1999.90;999.90;;;4.50;99.90;;;;;;5015415;28;20166;-85
2021/01/06 11:15:02;;;;;;;1999.90;999.90;;;4.50;99.90;;;;;;5014475;28;20162;-84
2021/01/06 11:17:45;;;;;;;1999.90;999.90;;;4.50;99.90;;;;;;4996341;28;20640;-83
2021/01/06 11:20:34;;;;;;;1999.90;999.90;;;4.50;99.90;;;;;;4996630;28;20170;-85
2021/01/06 11:23:24;;;;;;;1999.90;999.90;;;4.60;99.90;;;;;;4997622;28;20311;-84
2021/01/06 11:26:19;;;;;;;1999.90;999.90;;;4.60;99.90;;;;;;5014662;28;20166;-84
2021/01/06 11:28:59;;;;;;;1999.90;999.90;;;4.50;99.90;;;;;;4995843;28;20201;-85
2021/01/06 11:31:39;;;;;;;1999.90;999.90;;;4.50;99.90;;;;;;4997414;28;20158;-84
2021/01/06 11:34:19;;;;;;;1999.90;999.90;;;4.60;99.90;;;;;;5013922;28;20200;-84
2021/01/06 11:36:51;;;;;;;1999.90;999.90;;;4.60;99.90;;;;;;4996364;28;20173;-84
2021/01/06 11:39:35;;;;;;;1999.90;999.90;;;4.50;99.90;;;;;;5014340;28;20227;-84
2021/01/06 11:42:14;;;;;;;1999.90;999.90;;;4.50;99.90;;;;;;4996278;28;20262;-84
2021/01/06 11:44:42;;;;;;;1999.90;999.90;;;4.50;99.90;;;;;;5014178;28;20162;-85
2021/01/06 11:47:32;;;;;;;1999.90;999.90;;;4.60;99.90;;;;;;5014357;28;20604;-85
2021/01/06 11:50:29;;;;;;;1999.90;999.90;;;4.70;99.90;;;;;;5015219;28;20229;-84
2021/01/06 11:53:21;;;;;;;1999.90;999.90;;;4.60;99.90;;;;;;5014944;28;20162;-85
2021/01/06 11:56:23;;;;;;;1999.90;999.90;;;4.60;99.90;;;;;;5014432;28;20162;-85
2021/01/06 11:59:17;;;;;;;1999.90;999.90;;;4.60;99.90;;;;;;4993445;28;20258;-84
2021/01/06 12:01:48;;;;;;;1999.90;999.90;;;4.70;99.90;;;;;;5000142;28;20189;-84
2021/01/06 12:04:45;;;;;;;1999.90;999.90;;;4.70;99.90;;;;;;5017434;28;20173;-84
2021/01/06 12:08:03;;;;;;;1999.90;999.90;;;4.70;99.90;;;;;;5017589;28;20193;-85
2021/01/06 12:11:06;;;;;;;1999.90;999.90;;;4.60;99.90;;;;;;4979391;28;20645;-84
2021/01/06 12:13:43;;;;;;;1999.90;999.90;;;4.60;99.90;;;;;;5000598;28;20711;-84
2021/01/06 12:16:20;;;;;;;1999.90;999.90;;;4.50;99.90;;;;;;5018645;28;20639;-84
2021/01/06 12:19:09;;;;;;;1999.90;999.90;;;4.50;99.90;;;;;;5018522;28;20154;-85
2021/01/06 12:21:35;;;;;;;1999.90;999.90;;;4.50;99.90;;;;;;5018411;28;20499;-84
2021/01/06 12:24:38;;;;;;;1999.90;999.90;;;4.50;99.90;;;;;;5017599;28;20169;-85
2021/01/06 12:27:19;;;;;;;1999.90;999.90;;;4.50;99.90;;;;;;4999330;28;20186;-84
2021/01/06 12:30:17;;;;;;;1999.90;999.90;;;4.50;99.90;;;;;;5017227;28;20169;-84
2021/01/06 12:33:13;;;;;;;1999.90;999.90;;;4.50;99.90;;;;;;4978703;28;20545;-85
2021/01/06 12:36:23;;;;;;;;;;;;;;;;;;;;;
2021/01/06 12:39:18;;;;;;;1999.90;999.90;;;4.50;99.90;;;;;;5016748;28;20207;-84
2021/01/06 12:41:53;;;;;;;1999.90;999.90;;;4.40;99.90;;;;;;5016647;28;20169;-84
2021/01/06 12:44:22;;;;;;;1999.90;999.90;;;4.40;99.90;;;;;;5016950;28;20160;-84
2021/01/06 12:47:14;;;;;;;1999.90;999.90;;;4.40;99.90;;;;;;4998818;28;20225;-84
2021/01/06 12:50:02;;;;;;;1999.90;999.90;;;4.40;99.90;;;;;;4999193;28;20189;-84
2021/01/06 12:52:34;;;;;;;1999.90;999.90;;;4.30;99.90;;;;;;5016769;28;20170;-84
2021/01/06 12:55:21;;;;;;;1999.90;999.90;;;4.30;99.90;;;;;;5016672;28;20528;-84
2021/01/06 12:58:11;;;;;;;1999.90;999.90;;;4.40;99.90;;;;;;4981237;28;20177;-85